sensor_id;sensor_type;location;lat;lon;timestamp;pressure;altitude;pressure_sealevel;temperature;humidity
41467;BME280;27205;53.690;19.948;2022-07-23T00:02:06;100070.51;;;19.24;81.78
41467;BME280;27205;53.690;19.948;2022-07-23T00:07:10;100064.41;;;19.21;82.30
41467;BME280;27205;53.690;19.948;2022-07-23T00:12:13;100063.02;;;19.17;83.94
41467;BME280;27205;53.690;19.948;2022-07-23T00:17:17;100063.98;;;19.14;84.74
41467;BME280;27205;53.690;19.948;2022-07-23T00:22:20;100064.44;;;19.14;85.28
41467;BME280;27205;53.690;19.948;2022-07-23T00:27:24;100068.04;;;19.17;85.37
41467;BME280;27205;53.690;19.948;2022-07-23T00:32:27;100065.36;;;19.17;85.24
41467;BME280;27205;53.690;19.948;2022-07-23T00:37:50;100066.14;;;19.17;85.85
41467;BME280;27205;53.690;19.948;2022-07-23T00:42:54;100062.27;;;19.18;85.87
41467;BME280;27205;53.690;19.948;2022-07-23T00:47:58;100063.00;;;19.20;85.78
41467;BME280;27205;53.690;19.948;2022-07-23T00:53:02;100058.89;;;19.24;85.89
41467;BME280;27205;53.690;19.948;2022-07-23T00:58:05;100058.95;;;19.27;85.56
41467;BME280;27205;53.690;19.948;2022-07-23T01:03:09;100061.52;;;19.28;85.66
41467;BME280;27205;53.690;19.948;2022-07-23T01:08:13;100063.44;;;19.33;85.66
41467;BME280;27205;53.690;19.948;2022-07-23T01:13:16;100065.95;;;19.43;85.39
41467;BME280;27205;53.690;19.948;2022-07-23T01:18:19;100064.80;;;19.46;85.19
41467;BME280;27205;53.690;19.948;2022-07-23T01:23:23;100059.35;;;19.44;85.70
41467;BME280;27205;53.690;19.948;2022-07-23T01:28:26;100058.39;;;19.46;85.50
41467;BME280;27205;53.690;19.948;2022-07-23T01:33:29;100061.85;;;19.46;86.22
41467;BME280;27205;53.690;19.948;2022-07-23T01:38:33;100066.54;;;19.49;86.14
41467;BME280;27205;53.690;19.948;2022-07-23T01:43:36;100067.84;;;19.54;86.24
41467;BME280;27205;53.690;19.948;2022-07-23T01:48:40;100071.25;;;19.58;86.66
41467;BME280;27205;53.690;19.948;2022-07-23T01:53:43;100074.40;;;19.57;86.56
41467;BME280;27205;53.690;19.948;2022-07-23T01:58:48;100067.45;;;19.61;86.70
41467;BME280;27205;53.690;19.948;2022-07-23T02:03:52;100064.34;;;19.62;86.74
41467;BME280;27205;53.690;19.948;2022-07-23T02:08:55;100062.70;;;19.62;86.89
41467;BME280;27205;53.690;19.948;2022-07-23T02:13:59;100058.98;;;19.64;87.46
41467;BME280;27205;53.690;19.948;2022-07-23T02:19:03;100050.83;;;19.61;87.86
41467;BME280;27205;53.690;19.948;2022-07-23T02:24:07;100054.45;;;19.61;87.63
41467;BME280;27205;53.690;19.948;2022-07-23T02:29:11;100056.66;;;19.62;87.95
41467;BME280;27205;53.690;19.948;2022-07-23T02:34:14;100049.95;;;19.58;88.28
41467;BME280;27205;53.690;19.948;2022-07-23T02:39:17;100051.11;;;19.56;88.80
41467;BME280;27205;53.690;19.948;2022-07-23T02:44:21;100056.23;;;19.56;89.29
41467;BME280;27205;53.690;19.948;2022-07-23T02:49:24;100058.61;;;19.53;88.96
41467;BME280;27205;53.690;19.948;2022-07-23T02:54:27;100060.27;;;19.54;88.82
41467;BME280;27205;53.690;19.948;2022-07-23T02:59:31;100051.17;;;19.58;88.82
41467;BME280;27205;53.690;19.948;2022-07-23T03:04:34;100038.55;;;19.61;88.70
41467;BME280;27205;53.690;19.948;2022-07-23T03:09:38;100036.95;;;19.65;88.55
41467;BME280;27205;53.690;19.948;2022-07-23T03:14:41;100035.41;;;19.67;88.40
41467;BME280;27205;53.690;19.948;2022-07-23T03:19:44;100032.98;;;19.62;88.37
41467;BME280;27205;53.690;19.948;2022-07-23T03:24:48;100041.50;;;19.56;88.39
41467;BME280;27205;53.690;19.948;2022-07-23T03:29:59;100032.77;;;19.56;88.40
41467;BME280;27205;53.690;19.948;2022-07-23T03:35:03;100031.48;;;19.54;88.56
41467;BME280;27205;53.690;19.948;2022-07-23T03:40:09;100031.80;;;19.56;88.47
41467;BME280;27205;53.690;19.948;2022-07-23T03:45:12;100032.45;;;19.60;88.44
41467;BME280;27205;53.690;19.948;2022-07-23T03:50:16;100032.67;;;19.66;88.77
41467;BME280;27205;53.690;19.948;2022-07-23T03:55:19;100037.97;;;19.71;88.90
41467;BME280;27205;53.690;19.948;2022-07-23T04:00:23;100036.30;;;19.78;89.01
41467;BME280;27205;53.690;19.948;2022-07-23T04:05:26;100037.90;;;19.80;89.07
41467;BME280;27205;53.690;19.948;2022-07-23T04:10:29;100047.25;;;19.87;88.79
41467;BME280;27205;53.690;19.948;2022-07-23T04:15:32;100053.66;;;20.01;88.44
41467;BME280;27205;53.690;19.948;2022-07-23T04:20:36;100044.14;;;20.06;88.44
41467;BME280;27205;53.690;19.948;2022-07-23T04:25:42;100039.84;;;20.11;88.43
41467;BME280;27205;53.690;19.948;2022-07-23T04:30:46;100042.00;;;20.16;88.35
41467;BME280;27205;53.690;19.948;2022-07-23T04:35:49;100035.02;;;20.24;88.13
41467;BME280;27205;53.690;19.948;2022-07-23T04:40:53;100044.75;;;20.28;88.04
41467;BME280;27205;53.690;19.948;2022-07-23T04:45:56;100041.52;;;20.32;87.91
41467;BME280;27205;53.690;19.948;2022-07-23T04:50:59;100043.52;;;20.41;87.94
41467;BME280;27205;53.690;19.948;2022-07-23T04:56:03;100043.91;;;20.55;87.90
41467;BME280;27205;53.690;19.948;2022-07-23T05:01:07;100037.79;;;20.74;87.71
41467;BME280;27205;53.690;19.948;2022-07-23T05:06:11;100028.98;;;20.96;87.41
41467;BME280;27205;53.690;19.948;2022-07-23T05:11:14;100028.45;;;21.30;87.09
41467;BME280;27205;53.690;19.948;2022-07-23T05:16:17;100017.73;;;21.47;86.69
41467;BME280;27205;53.690;19.948;2022-07-23T05:21:21;100021.30;;;21.81;86.76
41467;BME280;27205;53.690;19.948;2022-07-23T05:26:24;100024.21;;;22.22;86.18
41467;BME280;27205;53.690;19.948;2022-07-23T05:31:27;100015.54;;;22.46;85.60
41467;BME280;27205;53.690;19.948;2022-07-23T05:36:32;100017.48;;;22.82;85.09
41467;BME280;27205;53.690;19.948;2022-07-23T05:41:35;100015.77;;;23.06;84.10
41467;BME280;27205;53.690;19.948;2022-07-23T05:46:39;100024.05;;;23.11;83.65
41467;BME280;27205;53.690;19.948;2022-07-23T05:51:42;100033.24;;;23.22;83.30
41467;BME280;27205;53.690;19.948;2022-07-23T05:56:48;100031.60;;;23.36;82.66
41467;BME280;27205;53.690;19.948;2022-07-23T06:01:53;100037.73;;;23.56;82.19
41467;BME280;27205;53.690;19.948;2022-07-23T06:06:56;100042.11;;;23.70;81.62
41467;BME280;27205;53.690;19.948;2022-07-23T06:12:00;100038.35;;;23.83;81.20
41467;BME280;27205;53.690;19.948;2022-07-23T06:17:03;100038.08;;;24.12;80.90
41467;BME280;27205;53.690;19.948;2022-07-23T06:22:06;100040.51;;;24.43;80.07
41467;BME280;27205;53.690;19.948;2022-07-23T06:27:10;100046.35;;;24.72;79.19
41467;BME280;27205;53.690;19.948;2022-07-23T06:32:13;100039.39;;;24.97;78.62
41467;BME280;27205;53.690;19.948;2022-07-23T06:37:17;100040.98;;;25.20;77.70
41467;BME280;27205;53.690;19.948;2022-07-23T06:42:20;100042.98;;;25.41;77.15
41467;BME280;27205;53.690;19.948;2022-07-23T06:47:23;100043.92;;;25.68;76.31
41467;BME280;27205;53.690;19.948;2022-07-23T06:52:27;100050.27;;;25.82;75.79
41467;BME280;27205;53.690;19.948;2022-07-23T06:57:33;100063.29;;;25.82;75.14
41467;BME280;27205;53.690;19.948;2022-07-23T07:02:37;100068.14;;;25.84;74.30
41467;BME280;27205;53.690;19.948;2022-07-23T07:07:42;100073.91;;;25.78;73.46
41467;BME280;27205;53.690;19.948;2022-07-23T07:12:47;100073.83;;;25.96;72.92
41467;BME280;27205;53.690;19.948;2022-07-23T07:17:50;100072.84;;;26.28;72.25
41467;BME280;27205;53.690;19.948;2022-07-23T07:22:54;100064.96;;;26.18;71.39
41467;BME280;27205;53.690;19.948;2022-07-23T07:27:58;100061.20;;;26.11;70.91
41467;BME280;27205;53.690;19.948;2022-07-23T07:33:01;100055.12;;;26.43;70.84
41467;BME280;27205;53.690;19.948;2022-07-23T07:38:05;100062.65;;;26.88;69.43
41467;BME280;27205;53.690;19.948;2022-07-23T07:43:08;100064.86;;;26.99;68.34
41467;BME280;27205;53.690;19.948;2022-07-23T07:48:12;100061.45;;;26.83;68.57
41467;BME280;27205;53.690;19.948;2022-07-23T07:53:16;100053.61;;;26.91;68.17
41467;BME280;27205;53.690;19.948;2022-07-23T07:58:20;100052.64;;;27.04;67.46
41467;BME280;27205;53.690;19.948;2022-07-23T08:03:24;100044.77;;;26.92;66.46
41467;BME280;27205;53.690;19.948;2022-07-23T08:08:27;100039.95;;;26.74;66.15
41467;BME280;27205;53.690;19.948;2022-07-23T08:13:31;100041.77;;;26.93;65.51
41467;BME280;27205;53.690;19.948;2022-07-23T08:18:34;100028.24;;;27.24;65.07
41467;BME280;27205;53.690;19.948;2022-07-23T08:23:38;100030.24;;;27.39;64.54
41467;BME280;27205;53.690;19.948;2022-07-23T08:28:41;100030.51;;;27.57;64.10
41467;BME280;27205;53.690;19.948;2022-07-23T08:33:45;100025.38;;;27.56;63.20
41467;BME280;27205;53.690;19.948;2022-07-23T08:38:48;100029.30;;;27.54;62.41
41467;BME280;27205;53.690;19.948;2022-07-23T08:43:52;100026.55;;;27.72;61.78
41467;BME280;27205;53.690;19.948;2022-07-23T08:48:56;100024.63;;;27.97;60.89
41467;BME280;27205;53.690;19.948;2022-07-23T08:54:01;100022.92;;;28.02;59.94
41467;BME280;27205;53.690;19.948;2022-07-23T08:59:05;100023.63;;;27.95;59.78
41467;BME280;27205;53.690;19.948;2022-07-23T09:04:09;100022.50;;;27.74;59.31
41467;BME280;27205;53.690;19.948;2022-07-23T09:09:20;100022.89;;;27.91;58.52
41467;BME280;27205;53.690;19.948;2022-07-23T09:14:44;100028.17;;;28.07;58.33
41467;BME280;27205;53.690;19.948;2022-07-23T09:19:51;100018.04;;;28.44;57.72
41467;BME280;27205;53.690;19.948;2022-07-23T09:25:09;100017.62;;;28.88;57.06
41467;BME280;27205;53.690;19.948;2022-07-23T09:30:14;100024.32;;;29.01;56.30
41467;BME280;27205;53.690;19.948;2022-07-23T09:35:17;100022.77;;;28.14;53.84
41467;BME280;27205;53.690;19.948;2022-07-23T09:40:20;100021.31;;;27.32;54.27
41467;BME280;27205;53.690;19.948;2022-07-23T09:45:24;100008.44;;;27.32;54.24
41467;BME280;27205;53.690;19.948;2022-07-23T09:50:29;99999.78;;;27.32;53.77
41467;BME280;27205;53.690;19.948;2022-07-23T09:55:34;99997.54;;;27.32;52.93
41467;BME280;27205;53.690;19.948;2022-07-23T10:00:40;99990.87;;;27.39;52.38
41467;BME280;27205;53.690;19.948;2022-07-23T10:05:44;99997.66;;;27.60;52.11
41467;BME280;27205;53.690;19.948;2022-07-23T10:10:49;100007.75;;;27.74;51.78
41467;BME280;27205;53.690;19.948;2022-07-23T10:15:53;100018.80;;;27.87;51.18
41467;BME280;27205;53.690;19.948;2022-07-23T10:20:58;100023.38;;;27.99;51.01
41467;BME280;27205;53.690;19.948;2022-07-23T10:26:36;100022.02;;;28.30;50.09
41467;BME280;27205;53.690;19.948;2022-07-23T10:42:33;100018.09;;;29.50;49.80
41467;BME280;27205;53.690;19.948;2022-07-23T10:47:36;100017.73;;;29.84;49.29
41467;BME280;27205;53.690;19.948;2022-07-23T10:53:17;100020.20;;;29.79;48.33
41467;BME280;27205;53.690;19.948;2022-07-23T10:58:48;100025.68;;;29.57;47.30
41467;BME280;27205;53.690;19.948;2022-07-23T11:03:57;100030.20;;;29.60;46.97
41467;BME280;27205;53.690;19.948;2022-07-23T11:09:41;100023.79;;;29.83;46.48
41467;BME280;27205;53.690;19.948;2022-07-23T11:25:11;100026.33;;;30.58;45.30
41467;BME280;27205;53.690;19.948;2022-07-23T11:35:45;100030.60;;;29.83;44.84
41467;BME280;27205;53.690;19.948;2022-07-23T11:40:52;100036.55;;;29.60;44.93
41467;BME280;27205;53.690;19.948;2022-07-23T11:45:59;100042.13;;;29.53;45.30
41467;BME280;27205;53.690;19.948;2022-07-23T11:51:03;100046.17;;;29.33;45.56
41467;BME280;27205;53.690;19.948;2022-07-23T11:56:08;100049.29;;;28.96;45.82
41467;BME280;27205;53.690;19.948;2022-07-23T12:01:12;100053.34;;;28.39;46.44
41467;BME280;27205;53.690;19.948;2022-07-23T12:06:16;100048.45;;;27.70;47.08
41467;BME280;27205;53.690;19.948;2022-07-23T12:11:19;100048.67;;;27.16;47.99
41467;BME280;27205;53.690;19.948;2022-07-23T12:16:24;100038.20;;;26.68;48.76
41467;BME280;27205;53.690;19.948;2022-07-23T12:21:28;100021.30;;;26.54;49.34
41467;BME280;27205;53.690;19.948;2022-07-23T12:26:36;100020.56;;;26.37;49.59
41467;BME280;27205;53.690;19.948;2022-07-23T12:31:53;100013.63;;;26.31;50.44
41467;BME280;27205;53.690;19.948;2022-07-23T12:36:57;100008.35;;;26.48;50.49
41467;BME280;27205;53.690;19.948;2022-07-23T12:42:01;100009.77;;;26.77;50.63
41467;BME280;27205;53.690;19.948;2022-07-23T12:47:04;100011.13;;;26.93;50.77
41467;BME280;27205;53.690;19.948;2022-07-23T12:52:17;100015.00;;;26.97;51.03
41467;BME280;27205;53.690;19.948;2022-07-23T12:57:47;100015.06;;;26.95;51.19
41467;BME280;27205;53.690;19.948;2022-07-23T13:02:51;100015.20;;;26.86;52.09
41467;BME280;27205;53.690;19.948;2022-07-23T13:07:55;100028.84;;;26.33;53.12
41467;BME280;27205;53.690;19.948;2022-07-23T13:12:58;100029.54;;;25.32;55.80
41467;BME280;27205;53.690;19.948;2022-07-23T13:18:02;100034.51;;;24.42;57.61
41467;BME280;27205;53.690;19.948;2022-07-23T13:23:06;100029.15;;;23.70;61.20
41467;BME280;27205;53.690;19.948;2022-07-23T13:28:12;100029.33;;;23.12;62.62
41467;BME280;27205;53.690;19.948;2022-07-23T13:33:20;100016.15;;;22.79;63.69
41467;BME280;27205;53.690;19.948;2022-07-23T13:38:24;100014.91;;;22.69;64.89
41467;BME280;27205;53.690;19.948;2022-07-23T13:43:28;100013.42;;;22.63;66.54
41467;BME280;27205;53.690;19.948;2022-07-23T13:48:38;100009.92;;;22.60;67.03
41467;BME280;27205;53.690;19.948;2022-07-23T13:53:42;100001.21;;;22.62;67.65
41467;BME280;27205;53.690;19.948;2022-07-23T13:58:47;100000.51;;;22.67;67.73
41467;BME280;27205;53.690;19.948;2022-07-23T14:03:50;99999.09;;;22.71;67.72
41467;BME280;27205;53.690;19.948;2022-07-23T14:08:54;100005.22;;;22.84;67.81
41467;BME280;27205;53.690;19.948;2022-07-23T14:13:57;100010.95;;;23.11;67.93
41467;BME280;27205;53.690;19.948;2022-07-23T14:19:02;100007.47;;;23.48;67.98
41467;BME280;27205;53.690;19.948;2022-07-23T14:24:07;100011.35;;;23.72;68.17
41467;BME280;27205;53.690;19.948;2022-07-23T14:29:10;100016.98;;;23.71;68.69
41467;BME280;27205;53.690;19.948;2022-07-23T14:34:14;100014.48;;;23.51;69.25
41467;BME280;27205;53.690;19.948;2022-07-23T14:39:18;100014.28;;;23.22;69.59
41467;BME280;27205;53.690;19.948;2022-07-23T14:44:21;100020.80;;;22.93;70.44
41467;BME280;27205;53.690;19.948;2022-07-23T14:49:26;100020.67;;;22.68;71.00
41467;BME280;27205;53.690;19.948;2022-07-23T14:54:30;100009.29;;;22.57;71.52
41467;BME280;27205;53.690;19.948;2022-07-23T14:59:33;100001.43;;;22.55;71.55
41467;BME280;27205;53.690;19.948;2022-07-23T15:04:39;100000.23;;;22.94;72.10
41467;BME280;27205;53.690;19.948;2022-07-23T15:09:42;99996.35;;;23.52;72.27
41467;BME280;27205;53.690;19.948;2022-07-23T15:14:46;99978.11;;;24.02;72.65
41467;BME280;27205;53.690;19.948;2022-07-23T15:19:49;99974.12;;;24.70;72.08
41467;BME280;27205;53.690;19.948;2022-07-23T15:24:53;99969.23;;;25.17;71.74
41467;BME280;27205;53.690;19.948;2022-07-23T15:29:56;99963.23;;;25.69;71.10
41467;BME280;27205;53.690;19.948;2022-07-23T15:34:59;99967.33;;;25.91;70.90
41467;BME280;27205;53.690;19.948;2022-07-23T15:40:05;99973.16;;;25.97;70.16
41467;BME280;27205;53.690;19.948;2022-07-23T15:45:15;99970.42;;;26.09;70.20
41467;BME280;27205;53.690;19.948;2022-07-23T15:50:20;99971.45;;;26.64;69.57
41467;BME280;27205;53.690;19.948;2022-07-23T15:55:23;99975.14;;;27.50;68.37
41467;BME280;27205;53.690;19.948;2022-07-23T16:00:28;99982.21;;;27.78;67.95
41467;BME280;27205;53.690;19.948;2022-07-23T16:05:31;99977.96;;;27.94;67.40
41467;BME280;27205;53.690;19.948;2022-07-23T16:10:35;99971.03;;;27.88;66.37
41467;BME280;27205;53.690;19.948;2022-07-23T16:15:40;99959.88;;;27.87;66.07
41467;BME280;27205;53.690;19.948;2022-07-23T16:20:44;99963.54;;;27.87;65.95
41467;BME280;27205;53.690;19.948;2022-07-23T16:25:48;99962.97;;;28.03;65.24
41467;BME280;27205;53.690;19.948;2022-07-23T16:30:51;99961.13;;;28.65;64.44
41467;BME280;27205;53.690;19.948;2022-07-23T16:35:55;99963.50;;;29.24;63.77
41467;BME280;27205;53.690;19.948;2022-07-23T16:40:58;99954.97;;;29.89;62.52
41467;BME280;27205;53.690;19.948;2022-07-23T16:46:03;99952.80;;;30.05;61.45
41467;BME280;27205;53.690;19.948;2022-07-23T16:51:07;99947.48;;;30.20;60.40
41467;BME280;27205;53.690;19.948;2022-07-23T16:56:10;99954.52;;;30.25;60.10
41467;BME280;27205;53.690;19.948;2022-07-23T17:01:13;99949.20;;;30.14;59.57
41467;BME280;27205;53.690;19.948;2022-07-23T17:06:17;99945.62;;;31.86;57.34
41467;BME280;27205;53.690;19.948;2022-07-23T17:11:20;99946.71;;;33.47;55.93
41467;BME280;27205;53.690;19.948;2022-07-23T17:16:24;99945.92;;;33.58;54.15
41467;BME280;27205;53.690;19.948;2022-07-23T17:21:27;99939.02;;;34.11;53.28
41467;BME280;27205;53.690;19.948;2022-07-23T17:26:30;99938.69;;;33.45;52.71
41467;BME280;27205;53.690;19.948;2022-07-23T17:31:36;99935.30;;;31.74;52.91
41467;BME280;27205;53.690;19.948;2022-07-23T17:36:40;99935.92;;;30.12;53.43
41467;BME280;27205;53.690;19.948;2022-07-23T17:41:44;99936.54;;;28.83;54.11
41467;BME280;27205;53.690;19.948;2022-07-23T17:46:50;99927.65;;;27.76;54.56
41467;BME280;27205;53.690;19.948;2022-07-23T17:51:54;99918.63;;;26.81;55.18
41467;BME280;27205;53.690;19.948;2022-07-23T17:56:58;99922.05;;;26.29;55.90
41467;BME280;27205;53.690;19.948;2022-07-23T18:02:08;99920.94;;;25.73;56.63
41467;BME280;27205;53.690;19.948;2022-07-23T18:07:12;99911.42;;;25.18;57.53
41467;BME280;27205;53.690;19.948;2022-07-23T18:12:15;99897.23;;;24.73;58.20
41467;BME280;27205;53.690;19.948;2022-07-23T18:17:19;99895.85;;;24.34;58.93
41467;BME280;27205;53.690;19.948;2022-07-23T18:22:22;99895.80;;;24.03;59.49
41467;BME280;27205;53.690;19.948;2022-07-23T18:27:26;99896.42;;;23.79;60.35
41467;BME280;27205;53.690;19.948;2022-07-23T18:32:32;99896.27;;;23.54;61.10
41467;BME280;27205;53.690;19.948;2022-07-23T18:37:37;99894.40;;;23.21;62.16
41467;BME280;27205;53.690;19.948;2022-07-23T18:42:41;99898.82;;;22.88;62.82
41467;BME280;27205;53.690;19.948;2022-07-23T18:47:44;99900.67;;;22.57;63.68
41467;BME280;27205;53.690;19.948;2022-07-23T18:52:48;99894.71;;;22.38;64.24
41467;BME280;27205;53.690;19.948;2022-07-23T18:57:52;99880.23;;;22.19;64.97
41467;BME280;27205;53.690;19.948;2022-07-23T19:02:58;99886.09;;;22.02;65.46
41467;BME280;27205;53.690;19.948;2022-07-23T19:08:09;99894.00;;;21.86;66.71
41467;BME280;27205;53.690;19.948;2022-07-23T19:13:12;99901.66;;;21.71;67.26
41467;BME280;27205;53.690;19.948;2022-07-23T19:18:16;99904.02;;;21.57;67.55
41467;BME280;27205;53.690;19.948;2022-07-23T19:23:20;99897.52;;;21.41;67.95
41467;BME280;27205;53.690;19.948;2022-07-23T19:28:23;99898.38;;;21.24;68.69
41467;BME280;27205;53.690;19.948;2022-07-23T19:33:27;99908.26;;;21.06;69.40
41467;BME280;27205;53.690;19.948;2022-07-23T19:38:30;99924.58;;;20.91;70.41
41467;BME280;27205;53.690;19.948;2022-07-23T19:43:33;99928.19;;;20.78;70.77
41467;BME280;27205;53.690;19.948;2022-07-23T19:48:37;99926.52;;;20.65;71.67
41467;BME280;27205;53.690;19.948;2022-07-23T19:53:41;99921.77;;;20.55;72.87
41467;BME280;27205;53.690;19.948;2022-07-23T19:58:45;99921.71;;;20.45;73.54
41467;BME280;27205;53.690;19.948;2022-07-23T20:03:48;99915.61;;;20.37;73.87
41467;BME280;27205;53.690;19.948;2022-07-23T20:08:51;99913.23;;;20.29;74.43
41467;BME280;27205;53.690;19.948;2022-07-23T20:13:57;99911.48;;;20.27;74.58
41467;BME280;27205;53.690;19.948;2022-07-23T20:19:00;99913.29;;;20.31;75.43
41467;BME280;27205;53.690;19.948;2022-07-23T20:24:05;99938.41;;;20.34;78.11
41467;BME280;27205;53.690;19.948;2022-07-23T20:29:14;99958.23;;;19.96;79.16
41467;BME280;27205;53.690;19.948;2022-07-23T20:34:19;99983.36;;;19.47;81.46
41467;BME280;27205;53.690;19.948;2022-07-23T20:39:22;99995.09;;;18.85;83.67
41467;BME280;27205;53.690;19.948;2022-07-23T20:44:26;99996.54;;;18.25;85.69
41467;BME280;27205;53.690;19.948;2022-07-23T20:49:29;100001.09;;;17.48;91.90
41467;BME280;27205;53.690;19.948;2022-07-23T20:54:33;99997.70;;;16.92;95.74
41467;BME280;27205;53.690;19.948;2022-07-23T20:59:36;100010.23;;;16.62;98.87
41467;BME280;27205;53.690;19.948;2022-07-23T21:04:40;100003.14;;;16.42;99.80
41467;BME280;27205;53.690;19.948;2022-07-23T21:09:48;100010.03;;;16.32;100.00
41467;BME280;27205;53.690;19.948;2022-07-23T21:14:52;100014.30;;;16.28;100.00
41467;BME280;27205;53.690;19.948;2022-07-23T21:19:55;100016.23;;;16.23;100.00
41467;BME280;27205;53.690;19.948;2022-07-23T21:24:59;100023.36;;;16.18;100.00
41467;BME280;27205;53.690;19.948;2022-07-23T21:36:17;100027.80;;;16.10;100.00
41467;BME280;27205;53.690;19.948;2022-07-23T21:41:21;100034.52;;;16.12;100.00
41467;BME280;27205;53.690;19.948;2022-07-23T21:46:25;100041.13;;;16.18;100.00
41467;BME280;27205;53.690;19.948;2022-07-23T21:51:29;100041.24;;;16.23;100.00
41467;BME280;27205;53.690;19.948;2022-07-23T21:56:33;100038.30;;;16.24;100.00
41467;BME280;27205;53.690;19.948;2022-07-23T22:01:36;100033.22;;;16.35;100.00
41467;BME280;27205;53.690;19.948;2022-07-23T22:06:41;100035.66;;;16.41;100.00
41467;BME280;27205;53.690;19.948;2022-07-23T22:11:44;100042.48;;;16.42;100.00
41467;BME280;27205;53.690;19.948;2022-07-23T22:16:48;100035.35;;;16.34;100.00
41467;BME280;27205;53.690;19.948;2022-07-23T22:21:51;100031.29;;;16.30;100.00
41467;BME280;27205;53.690;19.948;2022-07-23T22:26:55;100043.94;;;16.33;100.00
41467;BME280;27205;53.690;19.948;2022-07-23T22:31:58;100054.34;;;16.36;100.00
41467;BME280;27205;53.690;19.948;2022-07-23T22:37:02;100051.61;;;16.40;100.00
41467;BME280;27205;53.690;19.948;2022-07-23T22:42:05;100051.61;;;16.41;100.00
41467;BME280;27205;53.690;19.948;2022-07-23T22:47:09;100053.58;;;16.43;100.00
41467;BME280;27205;53.690;19.948;2022-07-23T22:52:13;100058.39;;;16.46;100.00
41467;BME280;27205;53.690;19.948;2022-07-23T22:57:18;100054.19;;;16.48;100.00
41467;BME280;27205;53.690;19.948;2022-07-23T23:02:21;100051.86;;;16.39;100.00
41467;BME280;27205;53.690;19.948;2022-07-23T23:07:24;100053.11;;;16.15;100.00
41467;BME280;27205;53.690;19.948;2022-07-23T23:12:28;100051.84;;;16.05;100.00
41467;BME280;27205;53.690;19.948;2022-07-23T23:17:31;100045.17;;;15.96;100.00
41467;BME280;27205;53.690;19.948;2022-07-23T23:22:34;100042.84;;;15.93;100.00
41467;BME280;27205;53.690;19.948;2022-07-23T23:27:38;100043.60;;;15.91;100.00
41467;BME280;27205;53.690;19.948;2022-07-23T23:32:41;100046.00;;;15.81;100.00
41467;BME280;27205;53.690;19.948;2022-07-23T23:37:45;100045.33;;;15.74;100.00
41467;BME280;27205;53.690;19.948;2022-07-23T23:42:48;100041.31;;;15.56;100.00
41467;BME280;27205;53.690;19.948;2022-07-23T23:47:51;100043.54;;;15.40;100.00
41467;BME280;27205;53.690;19.948;2022-07-23T23:52:55;100037.58;;;15.18;100.00
41467;BME280;27205;53.690;19.948;2022-07-23T23:58:00;100032.92;;;15.01;100.00
